sensor_id;sensor_type;location;lat;lon;timestamp;pressure;altitude;pressure_sealevel;temperature;humidity
3294;BME280;1659;51.470;6.770;2023-02-12T00:00:49;103647.59;;;8.27;87.92
3294;BME280;1659;51.470;6.770;2023-02-12T00:03:17;103648.47;;;8.27;87.70
3294;BME280;1659;51.470;6.770;2023-02-12T00:05:45;103656.38;;;8.27;87.97
3294;BME280;1659;51.470;6.770;2023-02-12T00:08:11;103659.00;;;8.27;87.78
3294;BME280;1659;51.470;6.770;2023-02-12T00:10:39;103652.91;;;8.28;87.85
3294;BME280;1659;51.470;6.770;2023-02-12T00:13:07;103647.59;;;8.27;87.94
3294;BME280;1659;51.470;6.770;2023-02-12T00:15:37;103657.25;;;8.28;88.32
3294;BME280;1659;51.470;6.770;2023-02-12T00:18:04;103647.66;;;8.28;87.98
3294;BME280;1659;51.470;6.770;2023-02-12T00:20:30;103650.22;;;8.27;88.21
3294;BME280;1659;51.470;6.770;2023-02-12T00:22:58;103651.06;;;8.26;88.10
3294;BME280;1659;51.470;6.770;2023-02-12T00:25:24;103652.78;;;8.25;87.64
3294;BME280;1659;51.470;6.770;2023-02-12T00:27:51;103644.81;;;8.24;87.92
3294;BME280;1659;51.470;6.770;2023-02-12T00:30:18;103655.38;;;8.24;87.84
3294;BME280;1659;51.470;6.770;2023-02-12T00:32:45;103652.72;;;8.24;87.95
3294;BME280;1659;51.470;6.770;2023-02-12T00:35:11;103658.81;;;8.23;87.72
3294;BME280;1659;51.470;6.770;2023-02-12T00:37:38;103668.53;;;8.24;88.06
3294;BME280;1659;51.470;6.770;2023-02-12T00:40:07;103662.38;;;8.23;88.04
3294;BME280;1659;51.470;6.770;2023-02-12T00:42:34;103656.19;;;8.23;88.09
3294;BME280;1659;51.470;6.770;2023-02-12T00:45:01;103649.16;;;8.22;87.58
3294;BME280;1659;51.470;6.770;2023-02-12T00:47:27;103645.63;;;8.21;88.08
3294;BME280;1659;51.470;6.770;2023-02-12T00:49:54;103649.09;;;8.20;88.01
3294;BME280;1659;51.470;6.770;2023-02-12T00:52:20;103650.78;;;8.18;87.75
3294;BME280;1659;51.470;6.770;2023-02-12T00:54:47;103652.50;;;8.18;87.93
3294;BME280;1659;51.470;6.770;2023-02-12T00:57:14;103652.41;;;8.15;87.58
3294;BME280;1659;51.470;6.770;2023-02-12T00:59:41;103653.28;;;8.15;87.50
3294;BME280;1659;51.470;6.770;2023-02-12T01:02:07;103654.13;;;8.14;87.96
3294;BME280;1659;51.470;6.770;2023-02-12T01:04:34;103652.41;;;8.15;87.93
3294;BME280;1659;51.470;6.770;2023-02-12T01:07:01;103646.22;;;8.14;88.05
3294;BME280;1659;51.470;6.770;2023-02-12T01:09:27;103649.63;;;8.11;88.17
3294;BME280;1659;51.470;6.770;2023-02-12T01:11:54;103646.94;;;8.10;87.70
3294;BME280;1659;51.470;6.770;2023-02-12T01:14:21;103643.41;;;8.09;88.22
3294;BME280;1659;51.470;6.770;2023-02-12T01:16:48;103654.84;;;8.10;88.05
3294;BME280;1659;51.470;6.770;2023-02-12T01:19:15;103647.78;;;8.09;88.40
3294;BME280;1659;51.470;6.770;2023-02-12T01:21:41;103646.88;;;8.08;87.52
3294;BME280;1659;51.470;6.770;2023-02-12T01:24:08;103645.09;;;8.07;87.92
3294;BME280;1659;51.470;6.770;2023-02-12T01:26:35;103650.38;;;8.07;87.50
3294;BME280;1659;51.470;6.770;2023-02-12T01:29:05;103642.41;;;8.06;88.08
3294;BME280;1659;51.470;6.770;2023-02-12T01:31:35;103642.34;;;8.04;88.02
3294;BME280;1659;51.470;6.770;2023-02-12T01:34:03;103641.50;;;8.05;88.26
3294;BME280;1659;51.470;6.770;2023-02-12T01:36:30;103641.47;;;8.04;87.59
3294;BME280;1659;51.470;6.770;2023-02-12T01:38:57;103635.28;;;8.03;87.58
3294;BME280;1659;51.470;6.770;2023-02-12T01:41:28;103630.00;;;8.03;87.52
3294;BME280;1659;51.470;6.770;2023-02-12T01:44:06;103626.47;;;8.03;87.89
3294;BME280;1659;51.470;6.770;2023-02-12T01:46:35;103633.50;;;8.02;87.78
3294;BME280;1659;51.470;6.770;2023-02-12T01:49:02;103632.56;;;8.02;88.19
3294;BME280;1659;51.470;6.770;2023-02-12T01:51:30;103629.88;;;8.00;87.48
3294;BME280;1659;51.470;6.770;2023-02-12T01:54:00;103631.56;;;7.98;88.08
3294;BME280;1659;51.470;6.770;2023-02-12T01:56:28;103630.69;;;7.98;88.21
3294;BME280;1659;51.470;6.770;2023-02-12T01:58:55;103640.25;;;7.96;87.99
3294;BME280;1659;51.470;6.770;2023-02-12T02:01:25;103640.25;;;7.96;88.06
3294;BME280;1659;51.470;6.770;2023-02-12T02:03:56;103634.09;;;7.95;87.60
3294;BME280;1659;51.470;6.770;2023-02-12T02:06:28;103627.03;;;7.94;87.96
3294;BME280;1659;51.470;6.770;2023-02-12T02:08:56;103625.22;;;7.93;87.83
3294;BME280;1659;51.470;6.770;2023-02-12T02:11:23;103625.22;;;7.93;87.75
3294;BME280;1659;51.470;6.770;2023-02-12T02:14:07;103626.16;;;7.93;88.33
3294;BME280;1659;51.470;6.770;2023-02-12T02:16:57;103627.84;;;7.93;88.03
3294;BME280;1659;51.470;6.770;2023-02-12T02:19:40;103617.31;;;7.93;87.50
3294;BME280;1659;51.470;6.770;2023-02-12T02:22:23;103622.53;;;7.91;87.68
3294;BME280;1659;51.470;6.770;2023-02-12T02:25:15;103620.81;;;7.92;87.83
3294;BME280;1659;51.470;6.770;2023-02-12T02:27:59;103611.09;;;7.91;88.10
3294;BME280;1659;51.470;6.770;2023-02-12T02:30:33;103613.69;;;7.89;88.23
3294;BME280;1659;51.470;6.770;2023-02-12T02:33:21;103612.78;;;7.89;88.15
3294;BME280;1659;51.470;6.770;2023-02-12T02:35:54;103610.16;;;7.89;87.92
3294;BME280;1659;51.470;6.770;2023-02-12T02:38:30;103604.84;;;7.87;87.87
3294;BME280;1659;51.470;6.770;2023-02-12T02:41:03;103608.31;;;7.86;88.25
3294;BME280;1659;51.470;6.770;2023-02-12T02:43:34;103601.19;;;7.84;87.85
3294;BME280;1659;51.470;6.770;2023-02-12T02:46:08;103605.50;;;7.82;87.65
3294;BME280;1659;51.470;6.770;2023-02-12T02:48:40;103608.91;;;7.79;88.01
3294;BME280;1659;51.470;6.770;2023-02-12T02:51:10;103607.19;;;7.80;88.00
3294;BME280;1659;51.470;6.770;2023-02-12T02:53:41;103600.97;;;7.78;88.11
3294;BME280;1659;51.470;6.770;2023-02-12T02:56:12;103601.78;;;7.77;88.38
3294;BME280;1659;51.470;6.770;2023-02-12T02:58:42;103607.81;;;7.74;87.74
3294;BME280;1659;51.470;6.770;2023-02-12T03:01:14;103608.69;;;7.73;88.41
3294;BME280;1659;51.470;6.770;2023-02-12T03:03:46;103603.28;;;7.70;88.55
3294;BME280;1659;51.470;6.770;2023-02-12T03:06:22;103608.47;;;7.68;88.53
3294;BME280;1659;51.470;6.770;2023-02-12T03:08:53;103613.63;;;7.65;88.84
3294;BME280;1659;51.470;6.770;2023-02-12T03:11:24;103608.25;;;7.62;88.66
3294;BME280;1659;51.470;6.770;2023-02-12T03:13:56;103615.25;;;7.62;88.48
3294;BME280;1659;51.470;6.770;2023-02-12T03:16:28;103610.81;;;7.61;88.76
3294;BME280;1659;51.470;6.770;2023-02-12T03:19:00;103605.56;;;7.61;88.24
3294;BME280;1659;51.470;6.770;2023-02-12T03:21:32;103616.97;;;7.61;88.74
3294;BME280;1659;51.470;6.770;2023-02-12T03:24:06;103617.84;;;7.60;88.16
3294;BME280;1659;51.470;6.770;2023-02-12T03:26:41;103607.31;;;7.60;88.75
3294;BME280;1659;51.470;6.770;2023-02-12T03:29:09;103608.97;;;7.58;88.76
3294;BME280;1659;51.470;6.770;2023-02-12T03:31:45;103607.19;;;7.57;88.54
3294;BME280;1659;51.470;6.770;2023-02-12T03:34:23;103614.16;;;7.56;88.71
3294;BME280;1659;51.470;6.770;2023-02-12T03:36:56;103618.53;;;7.56;88.58
3294;BME280;1659;51.470;6.770;2023-02-12T03:39:29;103618.47;;;7.54;88.85
3294;BME280;1659;51.470;6.770;2023-02-12T03:42:04;103618.41;;;7.53;88.56
3294;BME280;1659;51.470;6.770;2023-02-12T03:44:46;103620.22;;;7.54;88.86
3294;BME280;1659;51.470;6.770;2023-02-12T03:47:22;103626.38;;;7.54;88.58
3294;BME280;1659;51.470;6.770;2023-02-12T03:49:59;103621.88;;;7.52;88.87
3294;BME280;1659;51.470;6.770;2023-02-12T03:52:28;103617.44;;;7.51;88.40
3294;BME280;1659;51.470;6.770;2023-02-12T03:54:55;103619.19;;;7.50;88.79
3294;BME280;1659;51.470;6.770;2023-02-12T03:57:25;103623.56;;;7.50;88.57
3294;BME280;1659;51.470;6.770;2023-02-12T03:59:55;103624.41;;;7.49;88.42
3294;BME280;1659;51.470;6.770;2023-02-12T04:02:24;103626.19;;;7.50;88.81
3294;BME280;1659;51.470;6.770;2023-02-12T04:04:51;103621.00;;;7.51;89.20
3294;BME280;1659;51.470;6.770;2023-02-12T04:07:17;103620.22;;;7.54;88.85
3294;BME280;1659;51.470;6.770;2023-02-12T04:09:44;103631.63;;;7.54;88.99
3294;BME280;1659;51.470;6.770;2023-02-12T04:12:24;103632.56;;;7.56;88.43
3294;BME280;1659;51.470;6.770;2023-02-12T04:15:00;103635.28;;;7.58;88.48
3294;BME280;1659;51.470;6.770;2023-02-12T04:17:42;103635.34;;;7.60;88.99
3294;BME280;1659;51.470;6.770;2023-02-12T04:20:18;103639.78;;;7.61;88.66
3294;BME280;1659;51.470;6.770;2023-02-12T04:22:54;103640.66;;;7.61;88.56
3294;BME280;1659;51.470;6.770;2023-02-12T04:25:39;103641.53;;;7.60;89.18
3294;BME280;1659;51.470;6.770;2023-02-12T04:28:12;103644.16;;;7.60;88.38
3294;BME280;1659;51.470;6.770;2023-02-12T04:30:44;103645.94;;;7.61;88.54
3294;BME280;1659;51.470;6.770;2023-02-12T04:33:18;103651.19;;;7.61;88.21
3294;BME280;1659;51.470;6.770;2023-02-12T04:35:48;103646.78;;;7.60;89.27
3294;BME280;1659;51.470;6.770;2023-02-12T04:38:21;103658.19;;;7.61;88.64
3294;BME280;1659;51.470;6.770;2023-02-12T04:40:50;103652.94;;;7.61;88.76
3294;BME280;1659;51.470;6.770;2023-02-12T04:43:26;103653.84;;;7.61;88.82
3294;BME280;1659;51.470;6.770;2023-02-12T04:45:53;103661.66;;;7.60;89.24
3294;BME280;1659;51.470;6.770;2023-02-12T04:48:21;103665.16;;;7.59;88.48
3294;BME280;1659;51.470;6.770;2023-02-12T04:50:47;103662.53;;;7.59;89.14
3294;BME280;1659;51.470;6.770;2023-02-12T04:53:14;103669.50;;;7.58;88.95
3294;BME280;1659;51.470;6.770;2023-02-12T04:55:41;103663.34;;;7.57;88.49
3294;BME280;1659;51.470;6.770;2023-02-12T04:58:08;103671.31;;;7.59;88.54
3294;BME280;1659;51.470;6.770;2023-02-12T05:00:34;103670.47;;;7.60;88.44
3294;BME280;1659;51.470;6.770;2023-02-12T05:03:01;103663.41;;;7.59;88.67
3294;BME280;1659;51.470;6.770;2023-02-12T05:05:29;103658.13;;;7.59;88.50
3294;BME280;1659;51.470;6.770;2023-02-12T05:07:55;103665.22;;;7.60;88.41
3294;BME280;1659;51.470;6.770;2023-02-12T05:10:22;103665.22;;;7.60;88.49
3294;BME280;1659;51.470;6.770;2023-02-12T05:12:50;103661.59;;;7.58;88.93
3294;BME280;1659;51.470;6.770;2023-02-12T05:15:17;103664.22;;;7.58;89.09
3294;BME280;1659;51.470;6.770;2023-02-12T05:17:43;103666.03;;;7.59;89.06
3294;BME280;1659;51.470;6.770;2023-02-12T05:20:11;103667.78;;;7.59;88.96
3294;BME280;1659;51.470;6.770;2023-02-12T05:22:39;103662.59;;;7.60;88.65
3294;BME280;1659;51.470;6.770;2023-02-12T05:25:07;103664.34;;;7.61;89.03
3294;BME280;1659;51.470;6.770;2023-02-12T05:27:33;103670.50;;;7.62;88.99
3294;BME280;1659;51.470;6.770;2023-02-12T05:30:00;103667.13;;;7.64;88.40
3294;BME280;1659;51.470;6.770;2023-02-12T05:32:26;103677.66;;;7.64;88.31
3294;BME280;1659;51.470;6.770;2023-02-12T05:34:53;103678.53;;;7.65;89.02
3294;BME280;1659;51.470;6.770;2023-02-12T05:37:19;103682.91;;;7.64;88.63
3294;BME280;1659;51.470;6.770;2023-02-12T05:39:49;103679.41;;;7.64;88.32
3294;BME280;1659;51.470;6.770;2023-02-12T05:42:15;103674.94;;;7.63;88.78
3294;BME280;1659;51.470;6.770;2023-02-12T05:44:42;103679.31;;;7.62;88.34
3294;BME280;1659;51.470;6.770;2023-02-12T05:47:08;103683.81;;;7.65;88.79
3294;BME280;1659;51.470;6.770;2023-02-12T05:49:35;103682.91;;;7.64;88.85
3294;BME280;1659;51.470;6.770;2023-02-12T05:52:02;103691.75;;;7.66;88.54
3294;BME280;1659;51.470;6.770;2023-02-12T05:54:28;103689.13;;;7.66;88.14
3294;BME280;1659;51.470;6.770;2023-02-12T05:56:56;103685.69;;;7.67;88.19
3294;BME280;1659;51.470;6.770;2023-02-12T05:59:22;103685.69;;;7.67;88.24
3294;BME280;1659;51.470;6.770;2023-02-12T06:01:50;103681.31;;;7.68;88.77
3294;BME280;1659;51.470;6.770;2023-02-12T06:04:19;103684.00;;;7.69;88.26
3294;BME280;1659;51.470;6.770;2023-02-12T06:06:47;103684.00;;;7.69;88.63
3294;BME280;1659;51.470;6.770;2023-02-12T06:09:14;103684.00;;;7.69;88.11
3294;BME280;1659;51.470;6.770;2023-02-12T06:11:41;103689.25;;;7.69;88.29
3294;BME280;1659;51.470;6.770;2023-02-12T06:14:13;103687.53;;;7.70;88.10
3294;BME280;1659;51.470;6.770;2023-02-12T06:16:39;103684.88;;;7.70;88.64
3294;BME280;1659;51.470;6.770;2023-02-12T06:19:06;103680.50;;;7.70;88.13
3294;BME280;1659;51.470;6.770;2023-02-12T06:21:33;103678.75;;;7.69;88.19
3294;BME280;1659;51.470;6.770;2023-02-12T06:23:59;103685.75;;;7.69;88.52
3294;BME280;1659;51.470;6.770;2023-02-12T06:26:26;103685.75;;;7.69;87.93
3294;BME280;1659;51.470;6.770;2023-02-12T06:28:53;103684.81;;;7.68;87.83
3294;BME280;1659;51.470;6.770;2023-02-12T06:31:23;103683.16;;;7.70;87.79
3294;BME280;1659;51.470;6.770;2023-02-12T06:33:50;103692.78;;;7.70;88.42
3294;BME280;1659;51.470;6.770;2023-02-12T06:36:17;103695.41;;;7.70;88.00
3294;BME280;1659;51.470;6.770;2023-02-12T06:38:44;103681.38;;;7.69;88.33
3294;BME280;1659;51.470;6.770;2023-02-12T06:41:11;103687.47;;;7.68;87.88
3294;BME280;1659;51.470;6.770;2023-02-12T06:43:37;103690.94;;;7.67;88.08
3294;BME280;1659;51.470;6.770;2023-02-12T06:46:04;103690.94;;;7.67;87.95
3294;BME280;1659;51.470;6.770;2023-02-12T06:48:32;103697.91;;;7.67;88.21
3294;BME280;1659;51.470;6.770;2023-02-12T06:51:06;103692.59;;;7.65;87.96
3294;BME280;1659;51.470;6.770;2023-02-12T06:53:33;103695.22;;;7.65;88.43
3294;BME280;1659;51.470;6.770;2023-02-12T06:56:00;103698.78;;;7.66;87.98
3294;BME280;1659;51.470;6.770;2023-02-12T06:58:27;103693.50;;;7.66;87.92
3294;BME280;1659;51.470;6.770;2023-02-12T07:00:53;103707.56;;;7.66;87.64
3294;BME280;1659;51.470;6.770;2023-02-12T07:03:20;103703.19;;;7.67;88.18
3294;BME280;1659;51.470;6.770;2023-02-12T07:05:48;103713.78;;;7.68;87.63
3294;BME280;1659;51.470;6.770;2023-02-12T07:08:14;103716.41;;;7.68;88.07
3294;BME280;1659;51.470;6.770;2023-02-12T07:10:41;103710.31;;;7.69;87.77
3294;BME280;1659;51.470;6.770;2023-02-12T07:13:07;103712.97;;;7.69;87.37
3294;BME280;1659;51.470;6.770;2023-02-12T07:15:37;103719.97;;;7.69;87.71
3294;BME280;1659;51.470;6.770;2023-02-12T07:18:04;103719.91;;;7.67;87.56
3294;BME280;1659;51.470;6.770;2023-02-12T07:20:30;103719.84;;;7.66;87.98
3294;BME280;1659;51.470;6.770;2023-02-12T07:22:58;103718.09;;;7.66;87.63
3294;BME280;1659;51.470;6.770;2023-02-12T07:25:25;103715.38;;;7.65;88.12
3294;BME280;1659;51.470;6.770;2023-02-12T07:27:51;103722.47;;;7.66;87.71
3294;BME280;1659;51.470;6.770;2023-02-12T07:30:18;103721.59;;;7.67;87.76
3294;BME280;1659;51.470;6.770;2023-02-12T07:32:45;103726.81;;;7.65;87.40
3294;BME280;1659;51.470;6.770;2023-02-12T07:35:11;103732.06;;;7.65;87.88
3294;BME280;1659;51.470;6.770;2023-02-12T07:37:38;103730.38;;;7.66;88.13
3294;BME280;1659;51.470;6.770;2023-02-12T07:40:07;103732.06;;;7.65;88.22
3294;BME280;1659;51.470;6.770;2023-02-12T07:42:34;103737.41;;;7.67;87.50
3294;BME280;1659;51.470;6.770;2023-02-12T07:45:00;103733.13;;;7.69;88.02
3294;BME280;1659;51.470;6.770;2023-02-12T07:47:27;103735.84;;;7.72;87.60
3294;BME280;1659;51.470;6.770;2023-02-12T07:49:53;103735.94;;;7.73;87.43
3294;BME280;1659;51.470;6.770;2023-02-12T07:52:20;103737.81;;;7.76;88.06
3294;BME280;1659;51.470;6.770;2023-02-12T07:54:46;103750.19;;;7.79;87.71
3294;BME280;1659;51.470;6.770;2023-02-12T07:57:14;103747.53;;;7.79;87.58
3294;BME280;1659;51.470;6.770;2023-02-12T07:59:41;103741.47;;;7.80;87.67
3294;BME280;1659;51.470;6.770;2023-02-12T08:02:08;103744.97;;;7.80;88.03
3294;BME280;1659;51.470;6.770;2023-02-12T08:04:34;103744.97;;;7.80;87.40
3294;BME280;1659;51.470;6.770;2023-02-12T08:07:01;103744.19;;;7.83;87.44
3294;BME280;1659;51.470;6.770;2023-02-12T08:09:28;103743.50;;;7.87;87.70
3294;BME280;1659;51.470;6.770;2023-02-12T08:11:56;103746.38;;;7.93;87.46
3294;BME280;1659;51.470;6.770;2023-02-12T08:14:25;103744.75;;;7.97;87.42
3294;BME280;1659;51.470;6.770;2023-02-12T08:16:51;103748.31;;;7.97;87.20
3294;BME280;1659;51.470;6.770;2023-02-12T08:19:18;103745.75;;;8.00;87.37
3294;BME280;1659;51.470;6.770;2023-02-12T08:21:48;103749.31;;;8.01;87.34
3294;BME280;1659;51.470;6.770;2023-02-12T08:24:15;103751.09;;;8.02;87.35
3294;BME280;1659;51.470;6.770;2023-02-12T08:26:41;103752.03;;;8.02;87.19
3294;BME280;1659;51.470;6.770;2023-02-12T08:29:10;103760.09;;;8.07;87.70
3294;BME280;1659;51.470;6.770;2023-02-12T08:31:40;103761.97;;;8.09;87.26
3294;BME280;1659;51.470;6.770;2023-02-12T08:34:15;103764.72;;;8.12;87.82
3294;BME280;1659;51.470;6.770;2023-02-12T08:36:42;103764.88;;;8.17;87.34
3294;BME280;1659;51.470;6.770;2023-02-12T08:39:09;103772.91;;;8.20;87.06
3294;BME280;1659;51.470;6.770;2023-02-12T08:41:36;103776.50;;;8.22;87.15
3294;BME280;1659;51.470;6.770;2023-02-12T08:44:03;103766.97;;;8.26;87.41
3294;BME280;1659;51.470;6.770;2023-02-12T08:46:32;103773.25;;;8.29;87.46
3294;BME280;1659;51.470;6.770;2023-02-12T08:49:01;103772.66;;;8.37;87.12
3294;BME280;1659;51.470;6.770;2023-02-12T08:51:29;103773.91;;;8.45;86.89
3294;BME280;1659;51.470;6.770;2023-02-12T08:53:58;103771.44;;;8.49;87.08
3294;BME280;1659;51.470;6.770;2023-02-12T08:56:26;103767.13;;;8.52;87.08
3294;BME280;1659;51.470;6.770;2023-02-12T08:58:55;103766.41;;;8.56;87.22
3294;BME280;1659;51.470;6.770;2023-02-12T09:01:24;103770.97;;;8.60;86.75
3294;BME280;1659;51.470;6.770;2023-02-12T09:03:51;103774.63;;;8.63;86.62
3294;BME280;1659;51.470;6.770;2023-02-12T09:06:21;103773.81;;;8.66;87.05
3294;BME280;1659;51.470;6.770;2023-02-12T09:08:48;103774.06;;;8.72;86.95
3294;BME280;1659;51.470;6.770;2023-02-12T09:11:17;103776.03;;;8.78;86.72
3294;BME280;1659;51.470;6.770;2023-02-12T09:13:45;103777.09;;;8.83;86.34
3294;BME280;1659;51.470;6.770;2023-02-12T09:16:13;103777.34;;;8.91;86.59
3294;BME280;1659;51.470;6.770;2023-02-12T09:18:39;103769.69;;;8.97;86.45
3294;BME280;1659;51.470;6.770;2023-02-12T09:21:08;103780.44;;;9.03;86.09
3294;BME280;1659;51.470;6.770;2023-02-12T09:23:36;103781.50;;;9.08;85.95
3294;BME280;1659;51.470;6.770;2023-02-12T09:26:04;103784.38;;;9.14;85.73
3294;BME280;1659;51.470;6.770;2023-02-12T09:28:31;103783.00;;;9.25;85.98
3294;BME280;1659;51.470;6.770;2023-02-12T09:30:57;103788.72;;;9.38;85.71
3294;BME280;1659;51.470;6.770;2023-02-12T09:33:24;103787.31;;;9.48;85.38
3294;BME280;1659;51.470;6.770;2023-02-12T09:35:50;103778.94;;;9.61;85.16
3294;BME280;1659;51.470;6.770;2023-02-12T09:38:17;103774.97;;;9.74;84.91
3294;BME280;1659;51.470;6.770;2023-02-12T09:40:49;103783.25;;;9.85;84.67
3294;BME280;1659;51.470;6.770;2023-02-12T09:43:29;103777.47;;;9.96;84.45
3294;BME280;1659;51.470;6.770;2023-02-12T09:46:03;103780.50;;;10.09;84.15
3294;BME280;1659;51.470;6.770;2023-02-12T09:48:40;103778.09;;;10.16;84.07
3294;BME280;1659;51.470;6.770;2023-02-12T09:51:10;103782.91;;;10.30;83.86
3294;BME280;1659;51.470;6.770;2023-02-12T09:53:39;103788.38;;;10.34;83.58
3294;BME280;1659;51.470;6.770;2023-02-12T09:56:15;103783.28;;;10.41;83.63
3294;BME280;1659;51.470;6.770;2023-02-12T09:58:45;103780.06;;;10.51;83.36
3294;BME280;1659;51.470;6.770;2023-02-12T10:01:14;103777.69;;;10.60;83.24
3294;BME280;1659;51.470;6.770;2023-02-12T10:03:42;103780.63;;;10.71;83.11
3294;BME280;1659;51.470;6.770;2023-02-12T10:06:13;103781.75;;;10.79;82.99
3294;BME280;1659;51.470;6.770;2023-02-12T10:08:49;103785.47;;;10.86;82.78
3294;BME280;1659;51.470;6.770;2023-02-12T10:11:32;103783.09;;;10.95;82.55
3294;BME280;1659;51.470;6.770;2023-02-12T10:14:15;103791.28;;;11.04;82.04
3294;BME280;1659;51.470;6.770;2023-02-12T10:16:49;103787.94;;;11.10;81.85
3294;BME280;1659;51.470;6.770;2023-02-12T10:19:33;103790.78;;;11.18;81.74
3294;BME280;1659;51.470;6.770;2023-02-12T10:22:11;103788.34;;;11.25;81.34
3294;BME280;1659;51.470;6.770;2023-02-12T10:24:48;103789.19;;;11.24;81.00
3294;BME280;1659;51.470;6.770;2023-02-12T10:27:33;103785.81;;;11.30;80.89
3294;BME280;1659;51.470;6.770;2023-02-12T10:30:02;103786.03;;;11.38;80.75
3294;BME280;1659;51.470;6.770;2023-02-12T10:32:31;103786.09;;;11.41;79.99
3294;BME280;1659;51.470;6.770;2023-02-12T10:34:59;103793.09;;;11.39;79.90
3294;BME280;1659;51.470;6.770;2023-02-12T10:37:31;103790.44;;;11.39;79.81
3294;BME280;1659;51.470;6.770;2023-02-12T10:40:03;103786.03;;;11.39;79.70
3294;BME280;1659;51.470;6.770;2023-02-12T10:42:36;103784.41;;;11.43;79.79
3294;BME280;1659;51.470;6.770;2023-02-12T10:45:08;103786.25;;;11.47;79.75
3294;BME280;1659;51.470;6.770;2023-02-12T10:47:37;103786.41;;;11.51;79.27
3294;BME280;1659;51.470;6.770;2023-02-12T10:50:15;103785.66;;;11.57;78.98
3294;BME280;1659;51.470;6.770;2023-02-12T10:52:46;103783.84;;;11.56;79.13
3294;BME280;1659;51.470;6.770;2023-02-12T10:55:24;103783.94;;;11.59;79.04
3294;BME280;1659;51.470;6.770;2023-02-12T10:57:53;103774.38;;;11.66;78.90
3294;BME280;1659;51.470;6.770;2023-02-12T11:00:28;103772.72;;;11.69;78.21
3294;BME280;1659;51.470;6.770;2023-02-12T11:03:03;103773.63;;;11.71;78.28
3294;BME280;1659;51.470;6.770;2023-02-12T11:05:32;103774.47;;;11.69;77.82
3294;BME280;1659;51.470;6.770;2023-02-12T11:07:59;103773.59;;;11.70;77.98
3294;BME280;1659;51.470;6.770;2023-02-12T11:10:29;103773.59;;;11.70;77.22
3294;BME280;1659;51.470;6.770;2023-02-12T11:12:58;103767.41;;;11.69;77.35
3294;BME280;1659;51.470;6.770;2023-02-12T11:15:28;103773.72;;;11.75;76.87
3294;BME280;1659;51.470;6.770;2023-02-12T11:17:59;103772.03;;;11.78;76.75
3294;BME280;1659;51.470;6.770;2023-02-12T11:20:28;103770.47;;;11.86;76.70
3294;BME280;1659;51.470;6.770;2023-02-12T11:22:56;103766.94;;;11.87;76.07
3294;BME280;1659;51.470;6.770;2023-02-12T11:25:24;103756.41;;;11.89;76.08
3294;BME280;1659;51.470;6.770;2023-02-12T11:28:02;103752.13;;;11.94;76.02
3294;BME280;1659;51.470;6.770;2023-02-12T11:30:29;103758.28;;;11.93;75.82
3294;BME280;1659;51.470;6.770;2023-02-12T11:33:13;103752.22;;;11.97;75.51
3294;BME280;1659;51.470;6.770;2023-02-12T11:35:48;103748.84;;;12.04;75.67
3294;BME280;1659;51.470;6.770;2023-02-12T11:38:22;103749.72;;;12.05;75.58
3294;BME280;1659;51.470;6.770;2023-02-12T11:40:50;103748.88;;;12.06;75.57
3294;BME280;1659;51.470;6.770;2023-02-12T11:43:19;103745.34;;;12.07;75.41
3294;BME280;1659;51.470;6.770;2023-02-12T11:45:50;103745.25;;;12.02;74.95
3294;BME280;1659;51.470;6.770;2023-02-12T11:48:23;103747.03;;;12.03;75.18
3294;BME280;1659;51.470;6.770;2023-02-12T11:50:53;103747.97;;;12.05;74.85
3294;BME280;1659;51.470;6.770;2023-02-12T11:53:22;103741.72;;;12.03;75.12
3294;BME280;1659;51.470;6.770;2023-02-12T11:55:55;103740.78;;;12.00;75.03
3294;BME280;1659;51.470;6.770;2023-02-12T11:58:24;103739.81;;;11.96;74.82
3294;BME280;1659;51.470;6.770;2023-02-12T12:00:55;103738.00;;;11.94;74.65
3294;BME280;1659;51.470;6.770;2023-02-12T12:03:27;103739.69;;;11.92;74.43
3294;BME280;1659;51.470;6.770;2023-02-12T12:06:00;103736.03;;;11.88;74.70
3294;BME280;1659;51.470;6.770;2023-02-12T12:08:33;103735.13;;;11.86;74.64
3294;BME280;1659;51.470;6.770;2023-02-12T12:11:07;103735.94;;;11.83;74.34
3294;BME280;1659;51.470;6.770;2023-02-12T12:13:42;103733.06;;;11.74;74.55
3294;BME280;1659;51.470;6.770;2023-02-12T12:16:13;103724.84;;;11.63;74.36
3294;BME280;1659;51.470;6.770;2023-02-12T12:19:03;103720.19;;;11.51;74.54
3294;BME280;1659;51.470;6.770;2023-02-12T12:21:56;103729.81;;;11.49;74.66
3294;BME280;1659;51.470;6.770;2023-02-12T12:24:30;103719.31;;;11.52;74.55
3294;BME280;1659;51.470;6.770;2023-02-12T12:27:05;103718.47;;;11.53;74.13
3294;BME280;1659;51.470;6.770;2023-02-12T12:29:52;103719.44;;;11.57;74.12
3294;BME280;1659;51.470;6.770;2023-02-12T12:32:25;103706.22;;;11.59;74.02
3294;BME280;1659;51.470;6.770;2023-02-12T12:34:55;103707.97;;;11.58;73.87
3294;BME280;1659;51.470;6.770;2023-02-12T12:37:31;103710.69;;;11.61;73.93
3294;BME280;1659;51.470;6.770;2023-02-12T12:40:14;103702.69;;;11.60;73.41
3294;BME280;1659;51.470;6.770;2023-02-12T12:43:07;103693.94;;;11.62;73.64
3294;BME280;1659;51.470;6.770;2023-02-12T12:46:06;103692.22;;;11.64;73.37
3294;BME280;1659;51.470;6.770;2023-02-12T12:48:47;103691.44;;;11.68;73.27
3294;BME280;1659;51.470;6.770;2023-02-12T12:51:24;103686.13;;;11.68;73.25
3294;BME280;1659;51.470;6.770;2023-02-12T12:54:05;103690.53;;;11.68;73.46
3294;BME280;1659;51.470;6.770;2023-02-12T12:56:49;103686.25;;;11.73;73.35
3294;BME280;1659;51.470;6.770;2023-02-12T12:59:44;103679.16;;;11.72;73.12
3294;BME280;1659;51.470;6.770;2023-02-12T13:02:45;103678.22;;;11.70;72.71
3294;BME280;1659;51.470;6.770;2023-02-12T13:05:45;103678.06;;;11.62;72.92
3294;BME280;1659;51.470;6.770;2023-02-12T13:08:27;103674.47;;;11.60;73.26
3294;BME280;1659;51.470;6.770;2023-02-12T13:11:01;103669.22;;;11.63;72.92
3294;BME280;1659;51.470;6.770;2023-02-12T13:13:34;103667.50;;;11.65;72.99
3294;BME280;1659;51.470;6.770;2023-02-12T13:16:07;103663.13;;;11.66;72.69
3294;BME280;1659;51.470;6.770;2023-02-12T13:18:46;103654.34;;;11.68;72.94
3294;BME280;1659;51.470;6.770;2023-02-12T13:21:19;103656.09;;;11.68;72.86
3294;BME280;1659;51.470;6.770;2023-02-12T13:23:51;103655.97;;;11.63;72.87
3294;BME280;1659;51.470;6.770;2023-02-12T13:26:23;103653.25;;;11.59;72.85
3294;BME280;1659;51.470;6.770;2023-02-12T13:29:00;103652.28;;;11.55;72.74
3294;BME280;1659;51.470;6.770;2023-02-12T13:31:28;103649.63;;;11.55;72.51
3294;BME280;1659;51.470;6.770;2023-02-12T13:33:59;103647.03;;;11.58;72.43
3294;BME280;1659;51.470;6.770;2023-02-12T13:36:26;103647.84;;;11.54;72.48
3294;BME280;1659;51.470;6.770;2023-02-12T13:38:56;103639.88;;;11.54;72.82